sensor_id;sensor_type;location;lat;lon;timestamp;pressure;altitude;pressure_sealevel;temperature;humidity
5126;BME280;63008;53.112;8.896;2023-04-26T00:01:50;101569.94;;;5.43;77.26
5126;BME280;63008;53.112;8.896;2023-04-26T00:03:52;101574.59;;;5.38;77.25
5126;BME280;63008;53.112;8.896;2023-04-26T00:05:55;101580.06;;;5.38;77.21
5126;BME280;63008;53.112;8.896;2023-04-26T00:07:56;101577.88;;;5.40;77.08
5126;BME280;63008;53.112;8.896;2023-04-26T00:09:58;101581.34;;;5.45;77.47
5126;BME280;63008;53.112;8.896;2023-04-26T00:11:59;101576.16;;;5.49;76.30
5126;BME280;63008;53.112;8.896;2023-04-26T00:14:00;101578.63;;;5.50;76.72
5126;BME280;63008;53.112;8.896;2023-04-26T00:16:01;101572.88;;;5.52;76.22
5126;BME280;63008;53.112;8.896;2023-04-26T00:18:02;101574.28;;;5.49;77.06
5126;BME280;63008;53.112;8.896;2023-04-26T00:20:03;101575.66;;;5.47;76.92
5126;BME280;63008;53.112;8.896;2023-04-26T00:22:07;101571.06;;;5.37;77.64
5126;BME280;63008;53.112;8.896;2023-04-26T00:24:08;101584.16;;;5.31;77.85
5126;BME280;63008;53.112;8.896;2023-04-26T00:26:09;101587.69;;;5.31;78.38
5126;BME280;63008;53.112;8.896;2023-04-26T00:28:10;101590.13;;;5.28;78.18
5126;BME280;63008;53.112;8.896;2023-04-26T00:30:11;101587.19;;;5.19;78.64
5126;BME280;63008;53.112;8.896;2023-04-26T00:32:13;101591.00;;;5.23;78.77
5126;BME280;63008;53.112;8.896;2023-04-26T00:34:14;101585.00;;;5.16;78.70
5126;BME280;63008;53.112;8.896;2023-04-26T00:36:15;101589.38;;;5.12;79.03
5126;BME280;63008;53.112;8.896;2023-04-26T00:38:18;101583.41;;;5.10;79.15
5126;BME280;63008;53.112;8.896;2023-04-26T00:40:19;101582.34;;;5.06;79.53
5126;BME280;63008;53.112;8.896;2023-04-26T00:42:20;101583.72;;;5.04;79.66
5126;BME280;63008;53.112;8.896;2023-04-26T00:44:21;101590.53;;;4.96;80.05
5126;BME280;63008;53.112;8.896;2023-04-26T00:46:22;101584.00;;;4.97;80.30
5126;BME280;63008;53.112;8.896;2023-04-26T00:48:23;101577.22;;;4.95;80.01
5126;BME280;63008;53.112;8.896;2023-04-26T00:50:26;101582.38;;;4.91;80.21
5126;BME280;63008;53.112;8.896;2023-04-26T00:52:27;101584.00;;;4.92;80.61
5126;BME280;63008;53.112;8.896;2023-04-26T00:54:28;101583.50;;;4.85;80.59
5126;BME280;63008;53.112;8.896;2023-04-26T00:56:29;101583.22;;;4.82;80.95
5126;BME280;63008;53.112;8.896;2023-04-26T00:58:30;101583.25;;;4.77;80.95
5126;BME280;63008;53.112;8.896;2023-04-26T01:00:31;101590.81;;;4.85;81.01
5126;BME280;63008;53.112;8.896;2023-04-26T01:02:32;101584.84;;;4.88;80.99
5126;BME280;63008;53.112;8.896;2023-04-26T01:04:33;101595.19;;;4.81;80.76
5126;BME280;63008;53.112;8.896;2023-04-26T01:06:35;101592.72;;;4.79;81.00
5126;BME280;63008;53.112;8.896;2023-04-26T01:08:38;101581.63;;;4.76;81.01
5126;BME280;63008;53.112;8.896;2023-04-26T01:10:39;101594.94;;;4.72;81.40
5126;BME280;63008;53.112;8.896;2023-04-26T01:12:40;101595.47;;;4.74;81.65
5126;BME280;63008;53.112;8.896;2023-04-26T01:14:42;101597.66;;;4.72;81.46
5126;BME280;63008;53.112;8.896;2023-04-26T01:16:43;101599.28;;;4.68;81.44
5126;BME280;63008;53.112;8.896;2023-04-26T01:18:52;101602.53;;;4.65;81.84
5126;BME280;63008;53.112;8.896;2023-04-26T01:20:53;101606.09;;;4.76;81.37
5126;BME280;63008;53.112;8.896;2023-04-26T01:22:56;101604.44;;;4.70;81.41
5126;BME280;63008;53.112;8.896;2023-04-26T01:24:58;101604.72;;;4.68;81.41
5126;BME280;63008;53.112;8.896;2023-04-26T01:27:00;101602.81;;;4.69;81.82
5126;BME280;63008;53.112;8.896;2023-04-26T01:29:12;101615.06;;;4.71;81.67
5126;BME280;63008;53.112;8.896;2023-04-26T01:31:13;101612.59;;;4.70;81.96
5126;BME280;63008;53.112;8.896;2023-04-26T01:33:14;101613.69;;;4.79;81.51
5126;BME280;63008;53.112;8.896;2023-04-26T01:35:15;101613.41;;;4.80;81.38
5126;BME280;63008;53.112;8.896;2023-04-26T01:37:17;101610.41;;;4.87;81.24
5126;BME280;63008;53.112;8.896;2023-04-26T01:39:18;101616.94;;;4.86;81.68
5126;BME280;63008;53.112;8.896;2023-04-26T01:41:19;101607.66;;;4.92;81.80
5126;BME280;63008;53.112;8.896;2023-04-26T01:43:23;101617.44;;;4.98;80.90
5126;BME280;63008;53.112;8.896;2023-04-26T01:45:24;101606.56;;;5.03;80.92
5126;BME280;63008;53.112;8.896;2023-04-26T01:47:25;101604.38;;;5.00;80.44
5126;BME280;63008;53.112;8.896;2023-04-26T01:49:26;101605.22;;;4.95;80.72
5126;BME280;63008;53.112;8.896;2023-04-26T01:51:27;101597.03;;;5.00;80.17
5126;BME280;63008;53.112;8.896;2023-04-26T01:53:28;101595.41;;;5.04;80.87
5126;BME280;63008;53.112;8.896;2023-04-26T01:55:29;101597.31;;;5.04;80.25
5126;BME280;63008;53.112;8.896;2023-04-26T01:57:30;101602.19;;;5.07;80.23
5126;BME280;63008;53.112;8.896;2023-04-26T01:59:31;101600.81;;;5.09;80.08
5126;BME280;63008;53.112;8.896;2023-04-26T02:01:32;101607.09;;;5.05;80.20
5126;BME280;63008;53.112;8.896;2023-04-26T02:03:34;101598.66;;;5.01;80.31
5126;BME280;63008;53.112;8.896;2023-04-26T02:05:35;101586.97;;;5.01;80.93
5126;BME280;63008;53.112;8.896;2023-04-26T02:07:36;101604.38;;;5.05;80.82
5126;BME280;63008;53.112;8.896;2023-04-26T02:09:37;101600.84;;;5.04;80.85
5126;BME280;63008;53.112;8.896;2023-04-26T02:11:38;101600.84;;;5.04;80.65
5126;BME280;63008;53.112;8.896;2023-04-26T02:13:39;101601.94;;;5.03;80.43
5126;BME280;63008;53.112;8.896;2023-04-26T02:15:40;101607.13;;;4.95;80.96
5126;BME280;63008;53.112;8.896;2023-04-26T02:17:41;101599.50;;;4.92;81.13
5126;BME280;63008;53.112;8.896;2023-04-26T02:19:42;101605.75;;;4.92;81.37
5126;BME280;63008;53.112;8.896;2023-04-26T02:21:53;101604.13;;;4.96;81.18
5126;BME280;63008;53.112;8.896;2023-04-26T02:23:55;101599.78;;;4.95;81.33
5126;BME280;63008;53.112;8.896;2023-04-26T02:25:57;101600.88;;;4.89;81.29
5126;BME280;63008;53.112;8.896;2023-04-26T02:27:58;101602.78;;;4.84;81.61
5126;BME280;63008;53.112;8.896;2023-04-26T02:29:59;101609.31;;;4.88;81.42
5126;BME280;63008;53.112;8.896;2023-04-26T02:32:00;101603.88;;;4.83;81.42
5126;BME280;63008;53.112;8.896;2023-04-26T02:34:01;101605.78;;;4.77;81.84
5126;BME280;63008;53.112;8.896;2023-04-26T02:36:03;101611.22;;;4.77;81.97
5126;BME280;63008;53.112;8.896;2023-04-26T02:38:05;101606.88;;;4.66;82.29
5126;BME280;63008;53.112;8.896;2023-04-26T02:40:07;101609.34;;;4.63;82.52
5126;BME280;63008;53.112;8.896;2023-04-26T02:42:10;101615.59;;;4.58;82.94
5126;BME280;63008;53.112;8.896;2023-04-26T02:44:11;101613.72;;;4.59;83.14
5126;BME280;63008;53.112;8.896;2023-04-26T02:46:12;101618.56;;;4.57;82.91
5126;BME280;63008;53.112;8.896;2023-04-26T02:48:14;101619.94;;;4.59;83.21
5126;BME280;63008;53.112;8.896;2023-04-26T02:50:15;101610.44;;;4.62;83.25
5126;BME280;63008;53.112;8.896;2023-04-26T02:52:16;101611.81;;;4.54;83.51
5126;BME280;63008;53.112;8.896;2023-04-26T02:54:17;101615.31;;;4.55;83.45
5126;BME280;63008;53.112;8.896;2023-04-26T02:56:18;101608.00;;;4.50;83.48
5126;BME280;63008;53.112;8.896;2023-04-26T02:58:19;101611.81;;;4.54;83.77
5126;BME280;63008;53.112;8.896;2023-04-26T03:00:21;101602.00;;;4.58;83.38
5126;BME280;63008;53.112;8.896;2023-04-26T03:02:23;101609.63;;;4.51;83.53
5126;BME280;63008;53.112;8.896;2023-04-26T03:04:24;101606.09;;;4.51;83.67
5126;BME280;63008;53.112;8.896;2023-04-26T03:06:25;101612.88;;;4.58;83.76
5126;BME280;63008;53.112;8.896;2023-04-26T03:08:26;101608.00;;;4.60;83.36
5126;BME280;63008;53.112;8.896;2023-04-26T03:10:27;101615.59;;;4.63;83.47
5126;BME280;63008;53.112;8.896;2023-04-26T03:12:28;101610.69;;;4.65;83.76
5126;BME280;63008;53.112;8.896;2023-04-26T03:14:29;101613.97;;;4.57;83.38
5126;BME280;63008;53.112;8.896;2023-04-26T03:16:30;101619.94;;;4.59;83.60
5126;BME280;63008;53.112;8.896;2023-04-26T03:18:31;101610.16;;;4.68;83.48
5126;BME280;63008;53.112;8.896;2023-04-26T03:20:32;101607.44;;;4.68;83.20
5126;BME280;63008;53.112;8.896;2023-04-26T03:22:33;101615.84;;;4.72;83.44
5126;BME280;63008;53.112;8.896;2023-04-26T03:24:34;101617.50;;;4.63;83.33
5126;BME280;63008;53.112;8.896;2023-04-26T03:26:35;101612.88;;;4.58;83.54
5126;BME280;63008;53.112;8.896;2023-04-26T03:28:36;101608.78;;;4.56;83.38
5126;BME280;63008;53.112;8.896;2023-04-26T03:30:37;101610.97;;;4.64;83.65
5126;BME280;63008;53.112;8.896;2023-04-26T03:32:38;101606.63;;;4.58;84.01
5126;BME280;63008;53.112;8.896;2023-04-26T03:34:39;101606.09;;;4.66;84.22
5126;BME280;63008;53.112;8.896;2023-04-26T03:36:40;101618.03;;;4.65;83.59
5126;BME280;63008;53.112;8.896;2023-04-26T03:38:41;101613.16;;;4.62;83.43
5126;BME280;63008;53.112;8.896;2023-04-26T03:40:42;101612.06;;;4.63;83.28
5126;BME280;63008;53.112;8.896;2023-04-26T03:42:43;101616.97;;;4.66;83.25
5126;BME280;63008;53.112;8.896;2023-04-26T03:44:44;101612.06;;;4.68;83.34
5126;BME280;63008;53.112;8.896;2023-04-26T03:46:45;101615.88;;;4.77;83.18
5126;BME280;63008;53.112;8.896;2023-04-26T03:48:46;101617.22;;;4.74;82.88
5126;BME280;63008;53.112;8.896;2023-04-26T03:50:47;101618.56;;;4.72;83.14
5126;BME280;63008;53.112;8.896;2023-04-26T03:52:48;101620.19;;;4.73;83.58
5126;BME280;63008;53.112;8.896;2023-04-26T03:54:49;101619.66;;;4.71;83.25
5126;BME280;63008;53.112;8.896;2023-04-26T03:56:50;101617.47;;;4.73;83.02
5126;BME280;63008;53.112;8.896;2023-04-26T03:58:51;101618.03;;;4.70;83.35
5126;BME280;63008;53.112;8.896;2023-04-26T04:00:55;101615.59;;;4.73;83.11
5126;BME280;63008;53.112;8.896;2023-04-26T04:02:57;101604.47;;;4.60;83.13
5126;BME280;63008;53.112;8.896;2023-04-26T04:04:58;101605.28;;;4.60;83.18
5126;BME280;63008;53.112;8.896;2023-04-26T04:06:58;101606.09;;;4.61;83.17
5126;BME280;63008;53.112;8.896;2023-04-26T04:08:59;101606.63;;;4.58;83.12
5126;BME280;63008;53.112;8.896;2023-04-26T04:11:01;101608.53;;;4.47;83.26
5126;BME280;63008;53.112;8.896;2023-04-26T04:13:02;101602.00;;;4.48;83.28
5126;BME280;63008;53.112;8.896;2023-04-26T04:15:03;101608.00;;;4.50;83.69
5126;BME280;63008;53.112;8.896;2023-04-26T04:17:05;101612.88;;;4.43;83.59
5126;BME280;63008;53.112;8.896;2023-04-26T04:19:06;101604.19;;;4.41;83.64
5126;BME280;63008;53.112;8.896;2023-04-26T04:21:07;101612.91;;;4.38;83.52
5126;BME280;63008;53.112;8.896;2023-04-26T04:23:08;101610.44;;;4.32;84.05
5126;BME280;63008;53.112;8.896;2023-04-26T04:25:09;101615.88;;;4.27;84.25
5126;BME280;63008;53.112;8.896;2023-04-26T04:27:10;101613.44;;;4.25;84.47
5126;BME280;63008;53.112;8.896;2023-04-26T04:29:11;101614.81;;;4.23;84.38
5126;BME280;63008;53.112;8.896;2023-04-26T04:31:13;101610.16;;;4.23;84.54
5126;BME280;63008;53.112;8.896;2023-04-26T04:33:14;101606.09;;;4.21;84.42
5126;BME280;63008;53.112;8.896;2023-04-26T04:35:15;101614.53;;;4.14;84.60
5126;BME280;63008;53.112;8.896;2023-04-26T04:37:16;101614.78;;;4.13;84.82
5126;BME280;63008;53.112;8.896;2023-04-26T04:39:17;101617.22;;;4.19;84.99
5126;BME280;63008;53.112;8.896;2023-04-26T04:41:18;101616.41;;;4.19;84.63
5126;BME280;63008;53.112;8.896;2023-04-26T04:43:23;101612.59;;;4.20;84.59
5126;BME280;63008;53.112;8.896;2023-04-26T04:45:24;101619.44;;;4.32;84.74
5126;BME280;63008;53.112;8.896;2023-04-26T04:47:25;101620.22;;;4.38;84.25
5126;BME280;63008;53.112;8.896;2023-04-26T04:49:26;101616.97;;;4.46;84.21
5126;BME280;63008;53.112;8.896;2023-04-26T04:51:27;101615.06;;;4.41;83.76
5126;BME280;63008;53.112;8.896;2023-04-26T04:53:28;101620.22;;;4.48;83.77
5126;BME280;63008;53.112;8.896;2023-04-26T04:55:29;101619.97;;;4.49;83.31
5126;BME280;63008;53.112;8.896;2023-04-26T04:57:30;101621.59;;;4.40;83.34
5126;BME280;63008;53.112;8.896;2023-04-26T04:59:32;101624.03;;;4.42;83.33
5126;BME280;63008;53.112;8.896;2023-04-26T05:01:33;101630.03;;;4.44;83.53
5126;BME280;63008;53.112;8.896;2023-04-26T05:03:35;101628.38;;;4.48;83.52
5126;BME280;63008;53.112;8.896;2023-04-26T05:05:36;101628.66;;;4.51;83.42
5126;BME280;63008;53.112;8.896;2023-04-26T05:07:37;101626.75;;;4.52;82.93
5126;BME280;63008;53.112;8.896;2023-04-26T05:09:38;101629.47;;;4.52;82.69
5126;BME280;63008;53.112;8.896;2023-04-26T05:11:39;101631.06;;;4.58;82.70
5126;BME280;63008;53.112;8.896;2023-04-26T05:13:40;101630.00;;;4.64;82.21
5126;BME280;63008;53.112;8.896;2023-04-26T05:15:41;101632.97;;;4.62;82.32
5126;BME280;63008;53.112;8.896;2023-04-26T05:17:42;101633.53;;;4.64;82.35
5126;BME280;63008;53.112;8.896;2023-04-26T05:19:43;101622.38;;;4.56;81.72
5126;BME280;63008;53.112;8.896;2023-04-26T05:21:44;101628.94;;;4.60;82.07
5126;BME280;63008;53.112;8.896;2023-04-26T05:23:45;101631.34;;;4.61;81.56
5126;BME280;63008;53.112;8.896;2023-04-26T05:25:46;101618.84;;;4.60;81.57
5126;BME280;63008;53.112;8.896;2023-04-26T05:27:47;101632.19;;;4.62;82.04
5126;BME280;63008;53.112;8.896;2023-04-26T05:29:47;101621.28;;;4.72;81.57
5126;BME280;63008;53.112;8.896;2023-04-26T05:31:48;101630.28;;;4.72;81.22
5126;BME280;63008;53.112;8.896;2023-04-26T05:33:49;101626.19;;;4.80;82.34
5126;BME280;63008;53.112;8.896;2023-04-26T05:35:51;101628.03;;;4.99;82.39
5126;BME280;63008;53.112;8.896;2023-04-26T05:37:53;101629.69;;;5.05;80.66
5126;BME280;63008;53.112;8.896;2023-04-26T05:39:54;101629.94;;;5.14;80.49
5126;BME280;63008;53.112;8.896;2023-04-26T05:41:55;101632.34;;;5.15;79.50
5126;BME280;63008;53.112;8.896;2023-04-26T05:43:56;101635.06;;;5.25;79.15
5126;BME280;63008;53.112;8.896;2023-04-26T05:45:57;101625.28;;;5.24;78.54
5126;BME280;63008;53.112;8.896;2023-04-26T05:47:58;101627.13;;;5.33;78.46
5126;BME280;63008;53.112;8.896;2023-04-26T05:49:59;101630.91;;;5.42;78.29
5126;BME280;63008;53.112;8.896;2023-04-26T05:52:00;101645.56;;;5.51;77.90
5126;BME280;63008;53.112;8.896;2023-04-26T05:54:03;101642.84;;;5.56;77.48
5126;BME280;63008;53.112;8.896;2023-04-26T05:56:04;101632.22;;;5.60;77.04
5126;BME280;63008;53.112;8.896;2023-04-26T05:58:05;101633.75;;;5.76;75.91
5126;BME280;63008;53.112;8.896;2023-04-26T06:00:06;101632.94;;;5.80;75.94
5126;BME280;63008;53.112;8.896;2023-04-26T06:02:09;101639.22;;;5.81;75.90
5126;BME280;63008;53.112;8.896;2023-04-26T06:04:11;101632.94;;;5.85;75.92
5126;BME280;63008;53.112;8.896;2023-04-26T06:06:15;101637.25;;;5.91;75.43
5126;BME280;63008;53.112;8.896;2023-04-26T06:08:16;101636.41;;;5.96;75.59
5126;BME280;63008;53.112;8.896;2023-04-26T06:10:17;101638.56;;;5.99;75.59
5126;BME280;63008;53.112;8.896;2023-04-26T06:12:18;101638.25;;;6.05;75.73
5126;BME280;63008;53.112;8.896;2023-04-26T06:14:18;101635.84;;;5.99;75.43
5126;BME280;63008;53.112;8.896;2023-04-26T06:16:21;101630.03;;;6.10;75.71
5126;BME280;63008;53.112;8.896;2023-04-26T06:18:22;101639.81;;;6.16;76.63
5126;BME280;63008;53.112;8.896;2023-04-26T06:20:23;101637.00;;;6.26;75.50
5126;BME280;63008;53.112;8.896;2023-04-26T06:22:24;101638.69;;;6.22;75.51
5126;BME280;63008;53.112;8.896;2023-04-26T06:24:25;101649.28;;;6.29;75.11
5126;BME280;63008;53.112;8.896;2023-04-26T06:26:26;101641.94;;;6.24;74.54
5126;BME280;63008;53.112;8.896;2023-04-26T06:28:27;101645.16;;;6.31;74.99
5126;BME280;63008;53.112;8.896;2023-04-26T06:30:27;101642.63;;;6.40;74.48
5126;BME280;63008;53.112;8.896;2023-04-26T06:32:28;101645.63;;;6.43;74.27
5126;BME280;63008;53.112;8.896;2023-04-26T06:34:30;101652.41;;;6.46;73.88
5126;BME280;63008;53.112;8.896;2023-04-26T06:36:31;101658.63;;;6.51;73.45
5126;BME280;63008;53.112;8.896;2023-04-26T06:38:32;101661.84;;;6.58;72.72
5126;BME280;63008;53.112;8.896;2023-04-26T06:40:33;101665.63;;;6.62;72.33
5126;BME280;63008;53.112;8.896;2023-04-26T06:42:36;101660.72;;;6.64;71.93
5126;BME280;63008;53.112;8.896;2023-04-26T06:44:37;101659.19;;;6.53;72.08
5126;BME280;63008;53.112;8.896;2023-04-26T06:46:38;101664.25;;;6.65;71.58
5126;BME280;63008;53.112;8.896;2023-04-26T06:48:39;101670.44;;;6.75;71.21
5126;BME280;63008;53.112;8.896;2023-04-26T06:50:40;101671.53;;;6.74;71.24
5126;BME280;63008;53.112;8.896;2023-04-26T06:52:41;101667.72;;;6.75;71.06
5126;BME280;63008;53.112;8.896;2023-04-26T06:54:42;101666.88;;;6.80;70.36
5126;BME280;63008;53.112;8.896;2023-04-26T06:56:43;101658.91;;;6.83;70.46
5126;BME280;63008;53.112;8.896;2023-04-26T06:59:10;101672.03;;;6.81;70.29
5126;BME280;63008;53.112;8.896;2023-04-26T07:01:11;101668.81;;;6.74;70.92
5126;BME280;63008;53.112;8.896;2023-04-26T07:03:12;101672.31;;;6.80;70.17
5126;BME280;63008;53.112;8.896;2023-04-26T07:05:13;101676.34;;;6.87;70.83
5126;BME280;63008;53.112;8.896;2023-04-26T07:07:15;101672.41;;;6.98;70.61
5126;BME280;63008;53.112;8.896;2023-04-26T07:09:16;101675.06;;;7.08;70.65
5126;BME280;63008;53.112;8.896;2023-04-26T07:11:17;101687.81;;;7.13;70.64
5126;BME280;63008;53.112;8.896;2023-04-26T07:13:18;101682.75;;;7.01;70.35
5126;BME280;63008;53.112;8.896;2023-04-26T07:15:19;101685.25;;;6.98;70.47
5126;BME280;63008;53.112;8.896;2023-04-26T07:17:20;101681.16;;;6.95;71.24
5126;BME280;63008;53.112;8.896;2023-04-26T07:19:21;101685.53;;;6.96;71.41
5126;BME280;63008;53.112;8.896;2023-04-26T07:21:23;101684.94;;;6.99;71.36
5126;BME280;63008;53.112;8.896;2023-04-26T07:23:28;101690.03;;;7.11;70.04
5126;BME280;63008;53.112;8.896;2023-04-26T07:25:29;101689.50;;;7.09;70.05
5126;BME280;63008;53.112;8.896;2023-04-26T07:27:30;101683.25;;;7.08;70.42
5126;BME280;63008;53.112;8.896;2023-04-26T07:29:31;101695.81;;;7.04;69.29
5126;BME280;63008;53.112;8.896;2023-04-26T07:31:32;101690.00;;;7.16;69.94
5126;BME280;63008;53.112;8.896;2023-04-26T07:33:36;101697.59;;;7.18;68.71
5126;BME280;63008;53.112;8.896;2023-04-26T07:35:37;101687.44;;;7.24;68.56
5126;BME280;63008;53.112;8.896;2023-04-26T07:37:37;101691.69;;;7.35;68.49
5126;BME280;63008;53.112;8.896;2023-04-26T07:39:38;101691.34;;;7.41;67.33
5126;BME280;63008;53.112;8.896;2023-04-26T07:41:39;101696.00;;;7.64;67.37
5126;BME280;63008;53.112;8.896;2023-04-26T07:43:42;101696.41;;;7.76;66.56
5126;BME280;63008;53.112;8.896;2023-04-26T07:45:43;101692.22;;;7.84;65.51
5126;BME280;63008;53.112;8.896;2023-04-26T07:47:44;101695.00;;;7.79;65.54
5126;BME280;63008;53.112;8.896;2023-04-26T07:49:45;101700.34;;;7.89;65.97
5126;BME280;63008;53.112;8.896;2023-04-26T07:51:47;101691.19;;;7.98;65.60
5126;BME280;63008;53.112;8.896;2023-04-26T07:53:48;101697.66;;;8.07;66.42
5126;BME280;63008;53.112;8.896;2023-04-26T07:55:49;101698.88;;;8.20;65.18
5126;BME280;63008;53.112;8.896;2023-04-26T07:57:51;101690.47;;;8.11;64.95
5126;BME280;63008;53.112;8.896;2023-04-26T07:59:52;101694.31;;;8.10;64.50
5126;BME280;63008;53.112;8.896;2023-04-26T08:01:53;101699.84;;;8.29;65.80
5126;BME280;63008;53.112;8.896;2023-04-26T08:03:54;101699.53;;;8.49;65.97
5126;BME280;63008;53.112;8.896;2023-04-26T08:05:55;101699.97;;;8.56;67.23
5126;BME280;63008;53.112;8.896;2023-04-26T08:07:56;101701.75;;;8.65;65.70
5126;BME280;63008;53.112;8.896;2023-04-26T08:09:57;101703.06;;;8.68;65.18
5126;BME280;63008;53.112;8.896;2023-04-26T08:11:58;101691.75;;;8.56;63.89
5126;BME280;63008;53.112;8.896;2023-04-26T08:14:01;101699.47;;;8.54;64.20
5126;BME280;63008;53.112;8.896;2023-04-26T08:16:02;101701.88;;;8.74;64.67
5126;BME280;63008;53.112;8.896;2023-04-26T08:18:03;101699.69;;;8.89;64.08
5126;BME280;63008;53.112;8.896;2023-04-26T08:20:05;101701.78;;;8.79;62.96
5126;BME280;63008;53.112;8.896;2023-04-26T08:22:06;101702.06;;;8.96;63.81
5126;BME280;63008;53.112;8.896;2023-04-26T08:24:07;101701.47;;;8.99;65.03
5126;BME280;63008;53.112;8.896;2023-04-26T08:26:08;101706.53;;;9.05;64.17
5126;BME280;63008;53.112;8.896;2023-04-26T08:28:09;101712.06;;;9.18;65.55
5126;BME280;63008;53.112;8.896;2023-04-26T08:30:14;101712.47;;;9.12;63.08
5126;BME280;63008;53.112;8.896;2023-04-26T08:32:15;101717.34;;;9.15;62.19
5126;BME280;63008;53.112;8.896;2023-04-26T08:34:16;101714.38;;;9.11;62.16
5126;BME280;63008;53.112;8.896;2023-04-26T08:36:17;101717.44;;;9.23;62.36
5126;BME280;63008;53.112;8.896;2023-04-26T08:38:18;101712.09;;;9.45;63.35
5126;BME280;63008;53.112;8.896;2023-04-26T08:40:22;101710.50;;;9.71;63.67
5126;BME280;63008;53.112;8.896;2023-04-26T08:42:26;101707.78;;;9.71;62.83
5126;BME280;63008;53.112;8.896;2023-04-26T08:44:27;101718.41;;;9.59;59.86
5126;BME280;63008;53.112;8.896;2023-04-26T08:46:32;101722.66;;;9.38;59.88
5126;BME280;63008;53.112;8.896;2023-04-26T08:48:35;101706.22;;;9.25;58.99
5126;BME280;63008;53.112;8.896;2023-04-26T08:50:37;101718.38;;;9.32;58.68
5126;BME280;63008;53.112;8.896;2023-04-26T08:52:39;101713.34;;;9.66;58.44
5126;BME280;63008;53.112;8.896;2023-04-26T08:54:40;101718.22;;;9.83;58.01
5126;BME280;63008;53.112;8.896;2023-04-26T08:56:41;101709.38;;;9.86;57.84
5126;BME280;63008;53.112;8.896;2023-04-26T08:58:43;101709.91;;;9.74;56.77
5126;BME280;63008;53.112;8.896;2023-04-26T09:00:45;101707.66;;;9.63;57.20
5126;BME280;63008;53.112;8.896;2023-04-26T09:02:49;101715.47;;;9.56;58.87
5126;BME280;63008;53.112;8.896;2023-04-26T09:04:50;101715.31;;;9.20;58.97
5126;BME280;63008;53.112;8.896;2023-04-26T09:06:52;101707.47;;;9.01;59.76
5126;BME280;63008;53.112;8.896;2023-04-26T09:08:56;101703.63;;;9.02;60.11
5126;BME280;63008;53.112;8.896;2023-04-26T09:10:58;101703.66;;;8.97;59.83
5126;BME280;63008;53.112;8.896;2023-04-26T09:12:59;101709.88;;;9.02;59.45
5126;BME280;63008;53.112;8.896;2023-04-26T09:15:00;101707.97;;;9.02;59.26
5126;BME280;63008;53.112;8.896;2023-04-26T09:17:01;101718.13;;;9.15;59.71
5126;BME280;63008;53.112;8.896;2023-04-26T09:19:02;101724.38;;;9.34;59.18
5126;BME280;63008;53.112;8.896;2023-04-26T09:21:07;101728.44;;;9.37;58.80
5126;BME280;63008;53.112;8.896;2023-04-26T09:23:08;101718.53;;;9.54;57.80
5126;BME280;63008;53.112;8.896;2023-04-26T09:25:11;101719.97;;;9.79;58.77
5126;BME280;63008;53.112;8.896;2023-04-26T09:27:13;101725.53;;;10.14;56.52
5126;BME280;63008;53.112;8.896;2023-04-26T09:29:17;101723.22;;;10.21;56.77
5126;BME280;63008;53.112;8.896;2023-04-26T09:31:39;101726.28;;;10.06;55.90
5126;BME280;63008;53.112;8.896;2023-04-26T09:33:59;101728.97;;;9.79;56.49
5126;BME280;63008;53.112;8.896;2023-04-26T09:36:11;101721.16;;;9.46;57.67
5126;BME280;63008;53.112;8.896;2023-04-26T09:38:14;101730.31;;;9.23;58.77
5126;BME280;63008;53.112;8.896;2023-04-26T09:40:22;101733.97;;;9.18;60.92
5126;BME280;63008;53.112;8.896;2023-04-26T09:42:23;101737.47;;;9.05;62.15
5126;BME280;63008;53.112;8.896;2023-04-26T09:44:24;101742.81;;;8.97;61.28
5126;BME280;63008;53.112;8.896;2023-04-26T09:46:25;101741.19;;;8.96;61.33
5126;BME280;63008;53.112;8.896;2023-04-26T09:48:28;101746.16;;;8.94;59.69
5126;BME280;63008;53.112;8.896;2023-04-26T09:50:34;101742.84;;;8.79;59.84
5126;BME280;63008;53.112;8.896;2023-04-26T09:52:41;101744.25;;;8.76;60.24
5126;BME280;63008;53.112;8.896;2023-04-26T09:56:58;101753.56;;;8.94;59.53
5126;BME280;63008;53.112;8.896;2023-04-26T09:58:59;101749.84;;;9.03;58.49
5126;BME280;63008;53.112;8.896;2023-04-26T10:01:02;101749.69;;;8.95;58.72
5126;BME280;63008;53.112;8.896;2023-04-26T10:03:06;101752.56;;;9.03;59.91
5126;BME280;63008;53.112;8.896;2023-04-26T10:05:07;101748.19;;;9.20;59.40
5126;BME280;63008;53.112;8.896;2023-04-26T10:07:10;101747.59;;;9.37;61.29
5126;BME280;63008;53.112;8.896;2023-04-26T10:09:11;101754.22;;;9.49;58.46
5126;BME280;63008;53.112;8.896;2023-04-26T10:11:12;101749.84;;;9.48;56.95
5126;BME280;63008;53.112;8.896;2023-04-26T10:13:14;101748.44;;;9.51;56.49
5126;BME280;63008;53.112;8.896;2023-04-26T10:15:17;101748.22;;;9.47;56.97
5126;BME280;63008;53.112;8.896;2023-04-26T10:17:18;101744.97;;;9.45;57.66
5126;BME280;63008;53.112;8.896;2023-04-26T10:19:20;101754.03;;;9.59;57.12
5126;BME280;63008;53.112;8.896;2023-04-26T10:21:27;101741.06;;;9.51;57.11
5126;BME280;63008;53.112;8.896;2023-04-26T10:23:31;101747.16;;;9.62;56.96
5126;BME280;63008;53.112;8.896;2023-04-26T10:25:37;101746.97;;;9.99;55.49
5126;BME280;63008;53.112;8.896;2023-04-26T10:34:17;101743.53;;;12.04;48.21
5126;BME280;63008;53.112;8.896;2023-04-26T10:36:19;101747.88;;;12.70;48.18
5126;BME280;63008;53.112;8.896;2023-04-26T10:38:20;101742.22;;;13.08;47.89
5126;BME280;63008;53.112;8.896;2023-04-26T10:40:39;101737.94;;;13.28;47.29
5126;BME280;63008;53.112;8.896;2023-04-26T10:42:40;101725.69;;;12.66;48.85
5126;BME280;63008;53.112;8.896;2023-04-26T10:44:41;101750.19;;;12.12;50.33
5126;BME280;63008;53.112;8.896;2023-04-26T10:46:49;101746.16;;;11.48;55.20
5126;BME280;63008;53.112;8.896;2023-04-26T10:48:51;101765.75;;;10.81;57.22
5126;BME280;63008;53.112;8.896;2023-04-26T10:53:04;101761.91;;;9.34;62.63
5126;BME280;63008;53.112;8.896;2023-04-26T10:55:05;101762.53;;;8.81;65.76
5126;BME280;63008;53.112;8.896;2023-04-26T10:57:07;101761.63;;;8.48;68.48
5126;BME280;63008;53.112;8.896;2023-04-26T10:59:14;101762.38;;;8.54;70.25
5126;BME280;63008;53.112;8.896;2023-04-26T11:01:17;101761.84;;;8.70;71.98
5126;BME280;63008;53.112;8.896;2023-04-26T11:03:21;101754.47;;;8.34;72.66
5126;BME280;63008;53.112;8.896;2023-04-26T11:07:37;101760.38;;;8.17;71.11